Time;durP1;ratioP1;P1;durP2;ratioP2;P2;SDS_P1;SDS_P2;PMS_P1;PMS_P2;Temp;Humidity;BMP_temperature;BMP_pressure;BME280_temperature;BME280_humidity;BME280_pressure;Samples;Min_cycle;Max_cycle;Signal;HPM_P1;HPM_P2
2022/09/20 00:01:40;;;;;;;9.90;2.28;;;7.00;99.90;;;;;;5014627;28;20408;-69
2022/09/20 00:04:06;;;;;;;4.97;1.10;;;7.00;99.90;;;;;;5014741;28;20033;-69
2022/09/20 00:06:33;;;;;;;6.38;1.30;;;6.90;99.90;;;;;;5015055;28;20060;-69
2022/09/20 00:09:00;;;;;;;3.30;1.23;;;7.00;99.90;;;;;;5014194;28;20053;-69
2022/09/20 00:11:29;;;;;;;6.03;1.63;;;7.00;99.90;;;;;;5014601;28;20458;-69
2022/09/20 00:13:56;;;;;;;2.38;1.38;;;7.00;99.90;;;;;;4996780;28;20026;-69
2022/09/20 00:16:31;;;;;;;2.28;1.00;;;7.10;99.90;;;;;;5014767;28;20026;-69
2022/09/20 00:18:59;;;;;;;4.75;1.20;;;7.10;99.90;;;;;;5014587;28;20490;-69
2022/09/20 00:21:29;;;;;;;9.88;1.50;;;7.10;99.90;;;;;;5013949;28;20033;-68
2022/09/20 00:23:56;;;;;;;8.32;1.33;;;7.00;99.90;;;;;;5014212;28;20026;-69
2022/09/20 00:26:22;;;;;;;2.28;1.30;;;7.00;99.90;;;;;;5014254;28;20493;-69
2022/09/20 00:28:47;;;;;;;4.03;1.63;;;6.90;99.90;;;;;;5013865;28;20034;-69
2022/09/20 00:31:13;;;;;;;10.85;1.83;;;6.90;99.90;;;;;;4996798;28;20037;-69
2022/09/20 00:36:23;;;;;;;3.53;1.80;;;6.90;99.90;;;;;;5013748;28;20421;-68
2022/09/20 00:38:53;;;;;;;8.50;1.67;;;6.90;99.90;;;;;;5013926;28;20104;-68
2022/09/20 00:41:18;;;;;;;7.15;1.52;;;6.80;99.90;;;;;;5014059;28;20552;-68
2022/09/20 00:43:45;;;;;;;3.42;1.42;;;6.70;99.90;;;;;;5014600;28;20061;-69
2022/09/20 00:46:27;;;;;;;4.05;1.27;;;6.70;99.90;;;;;;5014083;28;20026;-69
2022/09/20 00:49:00;;;;;;;3.22;1.13;;;6.70;99.90;;;;;;5013787;28;20482;-69
2022/09/20 00:51:30;;;;;;;9.48;1.40;;;6.60;99.90;;;;;;5013837;28;20022;-68
2022/09/20 00:53:58;;;;;;;1.75;1.40;;;6.60;99.90;;;;;;5014019;28;20175;-69
2022/09/20 00:56:28;;;;;;;4.05;1.27;;;6.50;99.90;;;;;;5013822;28;20037;-69
2022/09/20 00:59:03;;;;;;;3.90;1.15;;;6.40;99.90;;;;;;5014149;28;20100;-69
2022/09/20 01:01:29;;;;;;;5.57;1.38;;;6.30;99.90;;;;;;5013436;28;20025;-69
2022/09/20 01:03:56;;;;;;;2.58;1.33;;;6.30;99.90;;;;;;5013700;28;20045;-69
2022/09/20 01:06:21;;;;;;;3.20;1.00;;;6.20;99.90;;;;;;5013729;28;20030;-68
2022/09/20 01:08:50;;;;;;;4.35;1.40;;;6.10;99.90;;;;;;5013504;28;20044;-68
2022/09/20 01:11:16;;;;;;;3.58;1.05;;;6.10;99.90;;;;;;5013112;28;20026;-68
2022/09/20 01:13:43;;;;;;;4.72;1.15;;;6.00;99.90;;;;;;5013717;28;20033;-69
2022/09/20 01:16:11;;;;;;;2.53;1.25;;;5.90;99.90;;;;;;5014217;28;20045;-68
2022/09/20 01:18:38;;;;;;;4.75;1.40;;;5.90;99.90;;;;;;5014130;28;20425;-68
2022/09/20 01:21:05;;;;;;;5.43;1.30;;;5.90;99.90;;;;;;5013111;28;20052;-69
2022/09/20 01:23:43;;;;;;;5.63;1.52;;;5.90;99.90;;;;;;5023242;28;20060;-68
2022/09/20 01:26:21;;;;;;;8.10;2.03;;;6.00;99.90;;;;;;5030219;28;20052;-69
2022/09/20 01:28:49;;;;;;;5.00;1.25;;;6.00;99.90;;;;;;5013763;28;20030;-69
2022/09/20 01:31:25;;;;;;;8.57;1.45;;;6.00;99.90;;;;;;5012708;28;20025;-69
2022/09/20 01:33:58;;;;;;;8.15;1.80;;;6.00;99.90;;;;;;5013765;28;20057;-68
2022/09/20 01:36:44;;;;;;;7.45;1.75;;;6.00;99.90;;;;;;5013031;28;20018;-69
2022/09/20 01:39:54;;;;;;;8.15;1.30;;;5.90;99.90;;;;;;5014348;28;20018;-69
2022/09/20 01:42:25;;;;;;;6.03;1.40;;;6.00;99.90;;;;;;5017203;28;20022;-69
2022/09/20 01:45:12;;;;;;;8.73;1.98;;;5.90;99.90;;;;;;5016339;28;20485;-69
2022/09/20 01:48:03;;;;;;;3.63;1.50;;;5.90;99.90;;;;;;5016987;28;20041;-69
2022/09/20 01:50:59;;;;;;;7.32;1.55;;;5.90;99.90;;;;;;5017713;28;20480;-69
2022/09/20 01:53:50;;;;;;;3.90;0.90;;;5.80;99.90;;;;;;5015777;28;20022;-69
2022/09/20 01:56:27;;;;;;;2.38;1.02;;;5.70;99.90;;;;;;5017046;28;20068;-69
2022/09/20 01:58:56;;;;;;;7.00;1.70;;;5.70;99.90;;;;;;5016363;28;20024;-69
2022/09/20 02:01:43;;;;;;;7.97;1.52;;;5.50;99.90;;;;;;5016891;28;20036;-69
2022/09/20 02:04:28;;;;;;;5.38;1.40;;;5.50;99.90;;;;;;5016953;28;20374;-69
2022/09/20 02:07:31;;;;;;;12.75;1.73;;;5.40;99.90;;;;;;5016737;28;20101;-69
2022/09/20 02:10:33;;;;;;;4.70;1.48;;;5.40;99.90;;;;;;5031113;28;20393;-69
2022/09/20 02:13:03;;;;;;;4.88;1.33;;;5.40;99.90;;;;;;5016950;28;20093;-68
2022/09/20 02:15:47;;;;;;;2.88;1.52;;;5.30;99.90;;;;;;5018022;28;20044;-68
2022/09/20 02:18:51;;;;;;;10.25;1.60;;;5.40;99.90;;;;;;5016556;28;20136;-69
2022/09/20 02:21:43;;;;;;;7.05;1.50;;;5.30;99.90;;;;;;4985838;28;20058;-69
2022/09/20 02:24:21;;;;;;;9.80;1.58;;;5.30;99.90;;;;;;5016433;28;20132;-69
2022/09/20 02:27:13;;;;;;;11.07;1.55;;;5.30;99.90;;;;;;5016621;28;20057;-68
2022/09/20 02:30:24;;;;;;;5.38;1.27;;;5.30;99.90;;;;;;5016400;28;20025;-69
2022/09/20 02:33:01;;;;;;;4.72;1.40;;;5.30;99.90;;;;;;5017102;28;20026;-68
2022/09/20 02:35:58;;;;;;;2.45;1.25;;;5.20;99.90;;;;;;5014750;28;20410;-68
2022/09/20 02:38:38;;;;;;;4.40;1.35;;;5.20;99.90;;;;;;5016214;28;20434;-68
2022/09/20 02:41:44;;;;;;;3.78;1.48;;;5.10;99.90;;;;;;5016276;28;20117;-69
2022/09/20 02:44:34;;;;;;;2.00;1.20;;;5.00;99.90;;;;;;5015735;28;20429;-69
2022/09/20 02:47:09;;;;;;;9.82;1.52;;;4.90;99.90;;;;;;5016118;28;20538;-68
2022/09/20 02:50:07;;;;;;;9.02;1.40;;;4.90;99.90;;;;;;5074435;23;20499;-67
2022/09/20 02:53:01;;;;;;;8.85;2.05;;;4.90;99.90;;;;;;5074203;28;20107;-67
2022/09/20 02:56:07;;;;;;;9.50;1.90;;;4.90;99.90;;;;;;5075855;28;20490;-67
2022/09/20 02:58:50;;;;;;;10.55;2.78;;;5.00;99.90;;;;;;5071753;28;20465;-67
2022/09/20 03:01:44;;;;;;;11.15;3.72;;;4.90;99.90;;;;;;5055361;28;20029;-67
2022/09/20 03:04:33;;;;;;;9.60;3.53;;;5.10;99.90;;;;;;5042930;28;20103;-67
2022/09/20 03:07:24;;;;;;;10.07;3.28;;;5.20;99.90;;;;;;5035375;28;20021;-68
2022/09/20 03:09:59;;;;;;;7.50;2.60;;;5.20;99.90;;;;;;5035337;28;20096;-67
2022/09/20 03:12:57;;;;;;;6.25;3.00;;;5.10;99.90;;;;;;5035531;28;20059;-67
2022/09/20 03:15:54;;;;;;;5.05;2.15;;;5.00;99.90;;;;;;5035303;28;20025;-67
2022/09/20 03:18:32;;;;;;;6.70;2.28;;;4.90;99.90;;;;;;5034595;28;20029;-67
2022/09/20 03:21:12;;;;;;;8.10;1.90;;;4.90;99.90;;;;;;5035320;28;20442;-67
2022/09/20 03:23:48;;;;;;;5.20;2.08;;;4.80;99.90;;;;;;5035338;28;20032;-67
2022/09/20 03:26:39;;;;;;;3.60;1.73;;;4.70;99.90;;;;;;5035202;28;20022;-67
2022/09/20 03:29:27;;;;;;;5.05;2.10;;;4.60;99.90;;;;;;5029515;28;20087;-67
2022/09/20 03:32:07;;;;;;;10.23;2.10;;;4.50;99.90;;;;;;5034989;28;20036;-67
2022/09/20 03:34:56;;;;;;;6.82;1.83;;;4.40;99.90;;;;;;5035120;28;20025;-67
2022/09/20 03:37:47;;;;;;;10.10;2.20;;;4.50;99.90;;;;;;5034492;28;20017;-67
2022/09/20 03:40:45;;;;;;;21.40;3.22;;;4.50;99.90;;;;;;5034608;28;20038;-67
2022/09/20 03:43:20;;;;;;;4.88;2.60;;;4.40;99.90;;;;;;5045033;28;20025;-67
2022/09/20 03:46:17;;;;;;;8.30;3.20;;;4.40;99.90;;;;;;5055129;28;20428;-67
2022/09/20 03:49:05;;;;;;;4.78;2.38;;;4.30;99.90;;;;;;5054138;28;20027;-68
2022/09/20 03:51:55;;;;;;;3.65;2.08;;;4.30;99.90;;;;;;5054296;28;20061;-68
2022/09/20 03:54:48;;;;;;;3.75;1.90;;;4.30;99.90;;;;;;5054616;28;20155;-68
2022/09/20 03:57:42;;;;;;;6.43;2.53;;;4.20;99.90;;;;;;5054058;28;20120;-68
2022/09/20 04:00:30;;;;;;;9.32;2.58;;;4.10;99.90;;;;;;5038905;28;20264;-68
2022/09/20 04:03:17;;;;;;;6.68;2.03;;;4.10;99.90;;;;;;5033923;28;20113;-68
2022/09/20 04:06:28;;;;;;;13.57;2.90;;;4.10;99.90;;;;;;5034205;28;20477;-68
2022/09/20 04:09:33;;;;;;;5.53;2.70;;;4.10;99.90;;;;;;5034645;28;20022;-68
2022/09/20 04:12:01;;;;;;;5.20;2.70;;;4.00;99.90;;;;;;5033790;28;20029;-68
2022/09/20 04:14:56;;;;;;;11.00;2.67;;;4.00;99.90;;;;;;5034296;28;20029;-68
2022/09/20 04:17:46;;;;;;;6.40;2.45;;;4.00;99.90;;;;;;5033969;28;20495;-68
2022/09/20 04:20:45;;;;;;;1.60;1.50;;;4.00;99.90;;;;;;5034240;28;20036;-68
2022/09/20 04:23:41;;;;;;;2.28;1.52;;;4.00;99.90;;;;;;5034069;28;20485;-68
2022/09/20 04:26:07;;;;;;;2.85;1.80;;;3.90;99.90;;;;;;5048713;28;20033;-68
2022/09/20 04:28:58;;;;;;;4.22;1.70;;;3.90;99.90;;;;;;5034017;28;20025;-68
2022/09/20 04:31:36;;;;;;;2.92;1.60;;;3.90;99.90;;;;;;5034002;28;20442;-68
2022/09/20 04:34:05;;;;;;;3.55;1.77;;;3.80;99.90;;;;;;5033917;28;20048;-68
2022/09/20 04:36:56;;;;;;;3.17;1.63;;;3.70;99.90;;;;;;5033949;28;20025;-68
2022/09/20 04:39:52;;;;;;;4.65;1.90;;;3.80;99.90;;;;;;5033103;28;20021;-67
2022/09/20 04:42:44;;;;;;;3.72;1.58;;;3.70;99.90;;;;;;5033083;28;20121;-68
2022/09/20 04:45:16;;;;;;;4.53;1.75;;;3.70;99.90;;;;;;5033632;28;20473;-68
2022/09/20 04:48:15;;;;;;;6.82;1.92;;;3.70;99.90;;;;;;5033680;28;20017;-68
2022/09/20 04:51:05;;;;;;;7.63;2.25;;;3.60;99.90;;;;;;5033059;28;20063;-68
2022/09/20 04:53:50;;;;;;;6.13;1.95;;;3.60;99.90;;;;;;5033637;28;20032;-68
2022/09/20 04:56:20;;;;;;;5.93;1.45;;;3.60;99.90;;;;;;5033737;28;20032;-68
2022/09/20 04:58:48;;;;;;;3.00;1.80;;;3.60;99.90;;;;;;5033897;28;20013;-68
2022/09/20 05:01:38;;;;;;;4.22;1.98;;;3.60;99.90;;;;;;5032924;28;20018;-68
2022/09/20 05:04:13;;;;;;;3.25;1.38;;;3.60;99.90;;;;;;5033650;28;20028;-69
2022/09/20 05:07:06;;;;;;;1.70;1.60;;;3.60;99.90;;;;;;5033499;28;20026;-68
2022/09/20 05:10:00;;;;;;;4.15;1.27;;;3.60;99.90;;;;;;5033805;28;20106;-68
2022/09/20 05:12:59;;;;;;;4.13;2.00;;;3.70;99.90;;;;;;4980114;28;20047;-68
2022/09/20 05:16:09;;;;;;;4.10;1.70;;;3.80;99.90;;;;;;5036209;28;20024;-68
2022/09/20 05:18:55;;;;;;;7.18;2.88;;;3.90;99.90;;;;;;5037357;28;20108;-68
2022/09/20 05:21:47;;;;;;;5.85;1.90;;;4.00;99.90;;;;;;5036062;28;20056;-68
2022/09/20 05:24:51;;;;;;;8.57;1.77;;;4.10;99.90;;;;;;5029338;28;20037;-68
2022/09/20 05:27:45;;;;;;;3.58;1.55;;;4.10;99.90;;;;;;5003849;28;20421;-68
2022/09/20 05:30:11;;;;;;;3.60;1.60;;;4.10;99.90;;;;;;5029121;28;20616;-68
2022/09/20 05:32:54;;;;;;;8.90;1.95;;;4.00;99.90;;;;;;5037341;28;20061;-68
2022/09/20 05:35:50;;;;;;;16.38;2.45;;;4.00;99.90;;;;;;5037415;28;20146;-68
2022/09/20 05:38:39;;;;;;;12.27;2.83;;;4.00;99.90;;;;;;5036454;28;20418;-68
2022/09/20 05:41:53;;;;;;;2.60;1.90;;;3.90;99.90;;;;;;5037447;28;20029;-68
2022/09/20 05:44:26;;;;;;;6.50;2.17;;;3.90;99.90;;;;;;5037204;28;20029;-68
2022/09/20 05:47:27;;;;;;;6.80;2.35;;;4.00;99.90;;;;;;5037086;28;20026;-68
2022/09/20 05:50:16;;;;;;;5.22;2.60;;;4.10;99.90;;;;;;5036100;28;20053;-68
2022/09/20 05:52:57;;;;;;;5.75;2.47;;;4.20;99.90;;;;;;5036103;28;20381;-68
2022/09/20 05:55:41;;;;;;;7.05;2.40;;;4.30;99.90;;;;;;5036759;28;20079;-68
2022/09/20 05:58:44;;;;;;;6.32;1.95;;;4.40;99.90;;;;;;5036646;28;20028;-69
2022/09/20 06:01:43;;;;;;;5.90;2.40;;;4.60;99.90;;;;;;5036188;28;20025;-68
2022/09/20 06:04:28;;;;;;;12.20;2.58;;;4.70;99.90;;;;;;5036640;28;20064;-69
2022/09/20 06:07:13;;;;;;;4.40;1.90;;;4.90;99.90;;;;;;5036482;28;20029;-68
2022/09/20 06:09:54;;;;;;;8.25;2.15;;;5.00;99.90;;;;;;5036374;28;20033;-68
2022/09/20 06:12:34;;;;;;;12.13;2.53;;;5.20;99.90;;;;;;5035956;28;20111;-67
2022/09/20 06:15:20;;;;;;;9.10;2.25;;;5.30;99.90;;;;;;5036452;28;20189;-68
2022/09/20 06:17:56;;;;;;;7.47;2.55;;;5.50;99.90;;;;;;5036260;28;20013;-67
2022/09/20 06:20:35;;;;;;;9.40;2.28;;;5.70;99.90;;;;;;5035700;28;20071;-67
2022/09/20 06:23:04;;;;;;;10.18;2.85;;;5.90;99.90;;;;;;5050459;28;20107;-67
2022/09/20 06:25:46;;;;;;;6.85;2.13;;;6.10;99.90;;;;;;5035674;28;20018;-67
2022/09/20 06:28:40;;;;;;;22.27;3.00;;;6.50;99.90;;;;;;5036222;28;20036;-68
2022/09/20 06:31:07;;;;;;;11.43;2.83;;;6.80;99.90;;;;;;5034090;28;20038;-68
2022/09/20 06:33:43;;;;;;;11.30;2.97;;;7.10;99.90;;;;;;5035467;28;20037;-68
2022/09/20 06:42:09;;;;;;;20.33;3.95;;;7.90;99.90;;;;;;5036354;28;20036;-68
2022/09/20 06:44:38;;;;;;;10.32;2.53;;;7.90;99.90;;;;;;5035488;28;20101;-68
2022/09/20 06:47:07;;;;;;;15.98;2.90;;;7.90;99.90;;;;;;5035962;28;20025;-68
2022/09/20 06:49:34;;;;;;;18.00;3.50;;;8.00;99.90;;;;;;5035865;28;20033;-68
2022/09/20 06:52:03;;;;;;;11.55;2.38;;;8.00;99.90;;;;;;5035833;28;20378;-68
2022/09/20 06:54:28;;;;;;;19.38;3.67;;;8.10;99.90;;;;;;5035091;28;20026;-68
2022/09/20 06:56:54;;;;;;;9.68;2.50;;;8.10;99.90;;;;;;5035479;28;20036;-68
2022/09/20 06:59:20;;;;;;;19.13;3.40;;;8.30;99.90;;;;;;5035710;28;20022;-68
2022/09/20 07:01:46;;;;;;;20.17;4.00;;;8.50;99.90;;;;;;5035770;28;20101;-68
2022/09/20 07:04:11;;;;;;;24.95;3.78;;;8.70;99.90;;;;;;5034813;28;20100;-68
2022/09/20 07:06:37;;;;;;;22.83;3.88;;;8.90;99.90;;;;;;5035411;28;20079;-68
2022/09/20 07:09:04;;;;;;;18.92;3.90;;;9.10;99.90;;;;;;5035540;28;20048;-68
2022/09/20 07:11:30;;;;;;;19.58;3.97;;;9.20;99.90;;;;;;5035425;28;20034;-68
2022/09/20 07:13:59;;;;;;;26.83;4.13;;;9.40;99.90;;;;;;5035182;28;20477;-68
2022/09/20 07:16:25;;;;;;;29.02;4.30;;;9.60;99.90;;;;;;5034746;28;20531;-68
2022/09/20 07:18:51;;;;;;;18.73;3.42;;;9.80;99.90;;;;;;5035647;28;20071;-68
2022/09/20 07:21:18;;;;;;;22.55;4.50;;;9.90;99.90;;;;;;5035306;28;20409;-69
2022/09/20 07:23:45;;;;;;;19.75;3.47;;;10.10;99.90;;;;;;5035050;28;20036;-67
2022/09/20 07:26:25;;;;;;;33.03;4.82;;;10.20;99.90;;;;;;5035024;28;20140;-67
2022/09/20 07:28:52;;;;;;;21.85;3.03;;;10.40;99.90;;;;;;5034300;28;20029;-68
2022/09/20 07:31:19;;;;;;;25.55;2.85;;;10.50;99.90;;;;;;5034892;28;20030;-68
2022/09/20 07:33:45;;;;;;;21.58;3.40;;;10.70;99.90;;;;;;5035128;28;20026;-68
2022/09/20 07:36:11;;;;;;;35.28;3.60;;;10.80;99.90;;;;;;5034687;28;20029;-68
2022/09/20 07:38:38;;;;;;;23.77;3.75;;;10.90;99.90;;;;;;5034152;28;20034;-69
2022/09/20 07:41:04;;;;;;;26.00;3.03;;;11.00;99.90;;;;;;5034215;28;20107;-68
2022/09/20 07:43:30;;;;;;;19.33;3.65;;;10.90;99.90;;;;;;5034583;28;20029;-69
2022/09/20 07:45:58;;;;;;;16.45;2.58;;;11.00;99.90;;;;;;5034879;28;20026;-69
2022/09/20 07:48:30;;;;;;;24.27;3.80;;;11.00;99.90;;;;;;5034347;28;20029;-68
2022/09/20 07:51:00;;;;;;;28.90;5.22;;;11.20;99.90;;;;;;5035181;28;20053;-69
2022/09/20 07:53:27;;;;;;;19.58;4.07;;;11.40;99.90;;;;;;5034220;28;20032;-68
2022/09/20 07:56:00;;;;;;;11.65;2.50;;;11.50;99.90;;;;;;5034604;28;20029;-68
2022/09/20 07:58:27;;;;;;;19.35;3.05;;;11.80;99.90;;;;;;5034557;28;20022;-68
2022/09/20 08:00:58;;;;;;;23.33;3.70;;;11.80;99.90;;;;;;5037313;28;20037;-68
2022/09/20 08:03:25;;;;;;;12.07;2.53;;;12.00;99.90;;;;;;5042401;28;20111;-68
2022/09/20 08:05:52;;;;;;;28.38;2.72;;;12.30;99.90;;;;;;5053867;28;20041;-69
2022/09/20 08:08:18;;;;;;;23.60;3.28;;;12.50;99.90;;;;;;5045466;28;20033;-68
2022/09/20 08:10:45;;;;;;;14.48;2.50;;;12.70;99.90;;;;;;5034077;28;20431;-69
2022/09/20 08:13:12;;;;;;;19.52;3.00;;;12.90;99.90;;;;;;5034325;28;20100;-69
2022/09/20 08:15:38;;;;;;;13.57;2.03;;;13.10;99.90;;;;;;5033791;28;20033;-69
2022/09/20 08:18:04;;;;;;;14.95;2.20;;;13.30;99.90;;;;;;5034793;28;20465;-69
2022/09/20 08:20:30;;;;;;;17.88;2.70;;;13.40;99.90;;;;;;5034035;28;20086;-69
2022/09/20 08:22:57;;;;;;;20.77;2.97;;;13.70;99.90;;;;;;5034210;28;20104;-69
2022/09/20 08:25:23;;;;;;;22.52;1.88;;;13.80;99.90;;;;;;5033854;28;20032;-68
2022/09/20 08:27:55;;;;;;;18.05;2.40;;;14.00;99.90;;;;;;5033684;28;20380;-69
2022/09/20 08:30:22;;;;;;;16.95;2.58;;;14.00;99.90;;;;;;5033845;28;20477;-69
2022/09/20 08:32:47;;;;;;;11.68;2.38;;;14.10;99.90;;;;;;5034053;28;20053;-69
2022/09/20 08:35:13;;;;;;;13.35;1.85;;;14.20;99.90;;;;;;5033700;28;20053;-69
2022/09/20 08:37:42;;;;;;;22.00;2.25;;;14.20;99.90;;;;;;5033973;28;20028;-69
2022/09/20 08:40:11;;;;;;;15.05;2.20;;;14.20;99.90;;;;;;5033217;28;20017;-69
2022/09/20 08:42:38;;;;;;;14.05;2.30;;;14.40;99.90;;;;;;5033729;28;20021;-69
2022/09/20 08:45:17;;;;;;;17.90;2.22;;;14.50;99.90;;;;;;5033850;28;20029;-69
2022/09/20 08:47:53;;;;;;;15.45;2.13;;;14.50;99.90;;;;;;5033730;28;20025;-69
2022/09/20 08:50:19;;;;;;;9.25;1.65;;;14.70;99.90;;;;;;5085105;22;20045;-70
2022/09/20 08:52:48;;;;;;;19.80;2.53;;;14.90;99.90;;;;;;5053126;28;20400;-69
2022/09/20 08:55:17;;;;;;;14.65;2.75;;;15.00;99.90;;;;;;5054315;28;20040;-71
2022/09/20 08:57:48;;;;;;;12.45;2.38;;;15.00;99.90;;;;;;5053745;28;20055;-71
2022/09/20 09:00:17;;;;;;;15.60;2.30;;;15.00;99.90;;;;;;5039528;28;20029;-71
2022/09/20 09:02:43;;;;;;;20.23;2.60;;;15.20;99.90;;;;;;5033833;28;20025;-71
2022/09/20 09:05:21;;;;;;;15.10;1.95;;;15.30;99.90;;;;;;5033426;28;20032;-71
2022/09/20 09:07:47;;;;;;;20.50;3.47;;;15.50;99.90;;;;;;5034181;28;20462;-72
2022/09/20 09:10:13;;;;;;;21.10;3.05;;;15.60;99.90;;;;;;5033782;28;20033;-72
2022/09/20 09:12:42;;;;;;;15.82;2.17;;;15.80;99.90;;;;;;5033823;28;20032;-72
2022/09/20 09:15:22;;;;;;;12.18;2.10;;;15.80;99.90;;;;;;5033820;28;20075;-72
2022/09/20 09:17:48;;;;;;;13.32;2.70;;;15.70;99.90;;;;;;5033781;28;20044;-72
2022/09/20 09:20:23;;;;;;;11.52;2.33;;;15.80;99.90;;;;;;5033089;28;20481;-72
2022/09/20 09:23:18;;;;;;;16.58;2.33;;;15.90;99.90;;;;;;5034020;28;20022;-72
2022/09/20 09:25:43;;;;;;;12.77;2.28;;;16.10;99.90;;;;;;5034010;28;20033;-72
2022/09/20 09:28:13;;;;;;;12.48;1.90;;;16.40;99.90;;;;;;5033980;28;20034;-72
2022/09/20 09:30:43;;;;;;;11.93;2.20;;;16.50;99.90;;;;;;5033277;28;20029;-72
2022/09/20 09:33:27;;;;;;;19.08;3.03;;;16.50;99.90;;;;;;5033029;28;20017;-72
2022/09/20 09:36:06;;;;;;;13.07;2.53;;;16.50;99.90;;;;;;5015777;28;20367;-72
2022/09/20 09:38:35;;;;;;;20.83;2.38;;;16.20;99.90;;;;;;5033388;28;20033;-72
2022/09/20 09:41:04;;;;;;;11.75;2.08;;;16.30;99.90;;;;;;5033462;28;20037;-72
2022/09/20 09:43:34;;;;;;;12.05;2.40;;;16.60;99.90;;;;;;5032932;28;20018;-72
2022/09/20 09:46:22;;;;;;;10.63;2.20;;;16.80;99.90;;;;;;5033302;28;20032;-72
2022/09/20 09:49:17;;;;;;;21.63;2.67;;;17.00;99.90;;;;;;5033473;28;20104;-72
2022/09/20 09:52:14;;;;;;;9.25;2.20;;;17.30;99.90;;;;;;5033261;28;20026;-72
2022/09/20 09:54:46;;;;;;;11.98;2.85;;;17.20;99.90;;;;;;5033717;28;20026;-72
2022/09/20 09:57:47;;;;;;;14.02;2.00;;;16.90;99.90;;;;;;5032794;28;20044;-72
2022/09/20 10:00:18;;;;;;;10.50;1.85;;;16.90;99.90;;;;;;5034144;28;20053;-72
2022/09/20 10:03:05;;;;;;;9.60;2.70;;;17.00;99.90;;;;;;5037021;28;20431;-71
2022/09/20 10:05:30;;;;;;;4.32;1.45;;;17.10;99.90;;;;;;5037015;28;20030;-71
2022/09/20 10:08:14;;;;;;;7.30;1.52;;;17.10;99.90;;;;;;5036426;28;20079;-71
2022/09/20 10:11:05;;;;;;;12.77;2.35;;;17.40;99.90;;;;;;5037071;28;20025;-71
2022/09/20 10:13:34;;;;;;;10.73;1.85;;;17.60;99.90;;;;;;5037225;28;20021;-71
2022/09/20 10:16:20;;;;;;;10.48;1.73;;;17.60;99.90;;;;;;5036870;28;20013;-72
2022/09/20 10:19:11;;;;;;;15.25;1.73;;;17.70;99.90;;;;;;5036634;28;20092;-71
2022/09/20 10:22:02;;;;;;;15.23;2.78;;;17.90;99.90;;;;;;5035507;28;20117;-71
2022/09/20 10:25:05;;;;;;;12.82;1.77;;;18.10;99.90;;;;;;5036438;28;20036;-71
2022/09/20 10:28:06;;;;;;;14.00;1.98;;;18.10;99.90;;;;;;5036902;28;20104;-71
2022/09/20 10:31:02;;;;;;;9.02;2.17;;;18.10;99.90;;;;;;4956045;29;20027;-71
2022/09/20 10:33:42;;;;;;;17.65;2.33;;;18.00;99.90;;;;;;5036493;28;20023;-71
2022/09/20 10:36:37;;;;;;;16.77;2.00;;;18.40;99.90;;;;;;5035768;28;20036;-72
2022/09/20 10:39:11;;;;;;;11.10;1.70;;;18.60;99.90;;;;;;5036634;28;20480;-72
2022/09/20 10:44:54;;;;;;;15.13;1.70;;;18.50;99.90;;;;;;5035837;28;20040;-72
2022/09/20 10:47:27;;;;;;;16.45;2.30;;;18.10;99.90;;;;;;5018814;28;20116;-72
2022/09/20 10:50:02;;;;;;;;;;;18.10;99.90;;;;;;5036510;28;20493;-72
2022/09/20 10:53:02;;;;;;;6.90;1.95;;;18.20;99.90;;;;;;5036769;28;19909;-72
2022/09/20 10:55:52;;;;;;;7.18;1.35;;;18.30;99.90;;;;;;5037631;28;20030;-72
2022/09/20 10:58:42;;;;;;;15.20;1.95;;;18.40;99.90;;;;;;5036902;28;20036;-72
2022/09/20 11:01:22;;;;;;;18.15;1.85;;;18.40;99.90;;;;;;5035927;28;20100;-72
2022/09/20 11:04:20;;;;;;;11.93;2.40;;;18.40;99.90;;;;;;5035847;28;20076;-72
2022/09/20 11:07:06;;;;;;;11.15;1.70;;;18.50;99.90;;;;;;5032104;28;20052;-73
2022/09/20 11:09:43;;;;;;;11.32;2.03;;;18.70;99.90;;;;;;5016318;28;20538;-72
2022/09/20 11:12:31;;;;;;;25.20;2.22;;;19.00;99.90;;;;;;5015565;28;20030;-73
2022/09/20 11:15:03;;;;;;;11.68;2.10;;;19.20;99.90;;;;;;5006448;28;20032;-72
2022/09/20 11:17:37;;;;;;;10.25;1.83;;;19.20;99.90;;;;;;5031029;28;20047;-73
2022/09/20 11:20:20;;;;;;;8.27;2.13;;;19.20;99.90;;;;;;5035755;28;20032;-72
2022/09/20 11:22:57;;;;;;;13.05;1.85;;;18.70;99.90;;;;;;5035492;28;20032;-72
2022/09/20 11:25:38;;;;;;;13.15;1.75;;;18.30;99.90;;;;;;5035166;28;20492;-72
2022/09/20 11:28:25;;;;;;;5.25;1.23;;;18.50;99.90;;;;;;5035499;28;20017;-72
2022/09/20 11:31:05;;;;;;;6.22;1.30;;;18.80;99.90;;;;;;5035268;28;20106;-72
2022/09/20 11:33:39;;;;;;;9.13;1.70;;;19.30;99.90;;;;;;5035520;28;20045;-73
2022/09/20 11:36:07;;;;;;;;;;;19.80;99.90;;;;;;5036064;28;20043;-72
2022/09/20 11:38:39;;;;;;;8.30;1.65;;;20.30;99.90;;;;;;5034821;28;20352;-72
2022/09/20 11:41:31;;;;;;;7.07;1.38;;;20.70;99.90;;;;;;5035576;28;20132;-72
2022/09/20 11:44:03;;;;;;;7.40;1.15;;;20.90;99.90;;;;;;5034972;28;20403;-71
2022/09/20 11:46:46;;;;;;;14.18;1.92;;;21.00;99.90;;;;;;5035063;28;20033;-72
2022/09/20 11:49:47;;;;;;;9.45;1.92;;;20.80;99.90;;;;;;5035057;28;20421;-72
2022/09/20 11:52:34;;;;;;;10.57;2.00;;;21.10;99.90;;;;;;5021675;28;20052;-72
2022/09/20 11:55:33;;;;;;;4.72;1.17;;;21.70;99.90;;;;;;5034510;28;20044;-71
2022/09/20 11:58:11;;;;;;;4.47;1.30;;;21.40;99.90;;;;;;5035152;28;20420;-72
2022/09/20 12:00:40;;;;;;;7.70;1.15;;;21.50;99.90;;;;;;5035005;28;20017;-72
2022/09/20 12:03:31;;;;;;;2.17;0.77;;;22.30;99.90;;;;;;5035094;28;20021;-72
2022/09/20 12:06:03;;;;;;;8.90;1.52;;;22.80;99.90;;;;;;5034609;28;20053;-72
2022/09/20 12:08:34;;;;;;;8.57;1.60;;;23.00;99.90;;;;;;5034862;28;20018;-72
2022/09/20 12:11:05;;;;;;;8.60;1.20;;;23.40;99.90;;;;;;5034796;28;20053;-72
2022/09/20 12:13:35;;;;;;;10.13;1.52;;;23.80;99.90;;;;;;5034176;28;20021;-71
2022/09/20 12:16:16;;;;;;;8.45;1.45;;;24.10;99.90;;;;;;5034625;28;20382;-72
2022/09/20 12:19:00;;;;;;;3.88;1.08;;;24.00;99.90;;;;;;5034589;28;20477;-72
2022/09/20 12:21:26;;;;;;;7.90;1.30;;;24.10;99.90;;;;;;5034164;28;20056;-72
2022/09/20 12:23:51;;;;;;;6.32;1.63;;;23.70;99.90;;;;;;5033800;28;20033;-72
2022/09/20 12:26:20;;;;;;;4.22;1.02;;;23.80;99.90;;;;;;5035078;28;20088;-73
2022/09/20 12:28:51;;;;;;;6.90;1.23;;;24.10;99.10;;;;;;5034191;28;20061;-72
2022/09/20 12:31:33;;;;;;;3.92;0.85;;;24.10;99.90;;;;;;5034348;28;20025;-72
2022/09/20 12:33:59;;;;;;;3.17;0.77;;;24.20;99.40;;;;;;5033858;28;20021;-72
2022/09/20 12:36:27;;;;;;;5.55;1.33;;;24.40;95.50;;;;;;5034418;28;20029;-72
2022/09/20 12:39:13;;;;;;;12.27;1.40;;;23.40;99.30;;;;;;5034120;28;20045;-72
2022/09/20 12:42:00;;;;;;;5.60;1.00;;;22.00;98.10;;;;;;5033884;28;20033;-72
2022/09/20 12:44:48;;;;;;;8.68;1.25;;;21.20;99.90;;;;;;5034342;28;20029;-72
2022/09/20 12:47:16;;;;;;;9.85;1.02;;;21.90;98.50;;;;;;5034425;28;20032;-72
2022/09/20 12:52:49;;;;;;;7.72;1.50;;;23.60;99.90;;;;;;5034475;28;20037;-72
2022/09/20 12:55:40;;;;;;;3.10;0.75;;;24.90;99.50;;;;;;5034350;28;20484;-72
2022/09/20 12:58:14;;;;;;;7.25;1.35;;;25.60;97.90;;;;;;5034193;28;20036;-72
2022/09/20 13:00:56;;;;;;;5.22;1.15;;;25.50;95.80;;;;;;5034009;28;20104;-72
2022/09/20 13:03:25;;;;;;;3.88;1.00;;;25.80;96.40;;;;;;5034203;28;20021;-72
2022/09/20 13:06:21;;;;;;;5.43;1.38;;;26.10;95.50;;;;;;5033892;28;20025;-72
2022/09/20 13:09:06;;;;;;;6.40;1.40;;;26.50;95.10;;;;;;5034124;28;20435;-72
2022/09/20 13:11:42;;;;;;;6.70;1.73;;;26.70;92.10;;;;;;5033882;28;20076;-72
2022/09/20 13:14:27;;;;;;;1.63;0.50;;;26.00;89.60;;;;;;5034046;28;20021;-72
2022/09/20 13:17:05;;;;;;;3.40;0.73;;;25.30;92.20;;;;;;5033586;28;20020;-72
2022/09/20 13:19:37;;;;;;;7.30;1.30;;;24.30;94.90;;;;;;5035750;28;20036;-72
2022/09/20 13:22:11;;;;;;;4.97;0.83;;;24.20;95.40;;;;;;5035300;28;20017;-72
2022/09/20 13:24:42;;;;;;;3.75;0.80;;;23.50;95.80;;;;;;5034063;28;20282;-72
2022/09/20 13:27:14;;;;;;;2.55;0.73;;;22.50;93.90;;;;;;5033650;28;20041;-70
2022/09/20 13:29:43;;;;;;;6.53;1.45;;;21.40;96.70;;;;;;5033251;28;20033;-70
2022/09/20 13:32:25;;;;;;;4.88;0.98;;;20.90;98.90;;;;;;5033442;28;20025;-70
2022/09/20 13:35:15;;;;;;;4.85;0.88;;;22.00;97.40;;;;;;5032489;28;20018;-70
2022/09/20 13:37:52;;;;;;;7.25;1.17;;;23.00;96.10;;;;;;5010367;28;20116;-70
2022/09/20 13:40:19;;;;;;;1.50;0.70;;;23.20;95.30;;;;;;5017003;28;20025;-70
2022/09/20 13:42:47;;;;;;;2.97;0.90;;;23.90;94.10;;;;;;5017562;28;20025;-70
2022/09/20 13:45:14;;;;;;;3.50;0.55;;;24.10;91.70;;;;;;5017478;28;20018;-70
2022/09/20 13:47:47;;;;;;;3.70;0.70;;;24.60;89.40;;;;;;5017498;28;20026;-69
2022/09/20 13:50:26;;;;;;;2.60;0.60;;;25.00;91.40;;;;;;5017265;28;20034;-70
2022/09/20 13:53:12;;;;;;;2.35;0.70;;;25.20;90.30;;;;;;5017110;28;20480;-69
2022/09/20 13:55:39;;;;;;;6.95;0.80;;;25.30;91.40;;;;;;5017277;28;20516;-70
2022/09/20 13:58:06;;;;;;;7.53;1.10;;;24.90;89.60;;;;;;5017276;28;20112;-70
2022/09/20 14:00:34;;;;;;;5.85;0.65;;;23.80;90.70;;;;;;5017101;28;20072;-70
2022/09/20 14:02:59;;;;;;;4.35;1.05;;;22.30;92.50;;;;;;5017243;28;20028;-70